Time;durP1;ratioP1;P1;durP2;ratioP2;P2;SDS_P1;SDS_P2;PMS_P1;PMS_P2;Temp;Humidity;BMP_temperature;BMP_pressure;BME280_temperature;BME280_humidity;BME280_pressure;Samples;Min_cycle;Max_cycle;Signal;HPM_P1;HPM_P2
2022/06/21 00:00:00;;;;;;;;;;;;;;;;;;349992;28;970;-70
2022/06/21 00:00:16;;;;;;;;;;;;;;;;;;349957;28;959;-70
2022/06/21 00:00:27;;;;;;;;;;;;;;;;;;349860;28;1073;-70
2022/06/21 00:00:38;;;;;;;;;;;;;;;;;;350467;28;1149;-71
2022/06/21 00:00:49;;;;;;;;;;;;;;;;;;351380;28;876;-70
2022/06/21 00:01:00;;;;;;;;;;;;;;;;;;351446;28;979;-70
2022/06/21 00:01:12;;;;;;;;;;;;;;;;;;350552;28;1796;-70
2022/06/21 00:01:23;;;;;;;;;;;;;;;;;;350009;28;1973;-70
2022/06/21 00:01:33;;;;;;;;;;;;;;;;;;350072;28;873;-70
2022/06/21 00:01:44;;;;;;;;;;;;;;;;;;349997;28;912;-70
2022/06/21 00:01:54;;;;;;;;;;;;;;;;;;350037;28;1022;-70
2022/06/21 00:02:05;;;;;;;;;;;;;;;;;;350050;28;786;-70
2022/06/21 00:02:17;;;;;;;;;;;;;;;;;;349719;28;1840;-70
2022/06/21 00:02:27;;;;;;;;;;;;;;;;;;350011;28;967;-70
2022/06/21 00:02:38;;;;;;;;;;;;;;;;;;349964;28;927;-70
2022/06/21 00:02:49;;;;;;;;;;;;;;;;;;350020;28;919;-70
2022/06/21 00:03:04;;;;;;;;;;;;;;;;;;350028;28;952;-70
2022/06/21 00:03:20;;;;;;;;;;;;;;;;;;350018;28;924;-70
2022/06/21 00:03:30;;;;;;;;;;;;;;;;;;349955;28;971;-70
2022/06/21 00:03:41;;;;;;;;;;;;;;;;;;350002;28;990;-70
2022/06/21 00:03:51;;;;;;;;;;;;;;;;;;350069;28;1831;-70
2022/06/21 00:04:01;;;;;;;;;;;;;;;;;;350036;28;810;-70
2022/06/21 00:04:12;;;;;;;;;;;;;;;;;;349988;28;832;-70
2022/06/21 00:04:22;;;;;;;;;;;;;;;;;;349943;28;916;-70
2022/06/21 00:04:32;;;;;;;;;;;;;;;;;;350024;28;948;-70
2022/06/21 00:04:42;;;;;;;;;;;;;;;;;;350029;28;1007;-70
2022/06/21 00:04:53;;;;;;;;;;;;;;;;;;350040;28;931;-70
2022/06/21 00:05:05;;;;;;;;;;;;;;;;;;349998;28;1160;-70
2022/06/21 00:05:22;;;;;;;;;;;;;;;;;;349950;28;935;-70
2022/06/21 00:05:34;;;;;;;;;;;;;;;;;;350016;28;983;-70
2022/06/21 00:05:46;;;;;;;;;;;;;;;;;;350066;28;809;-70
2022/06/21 00:05:56;;;;;;;;;;;;;;;;;;350067;28;860;-70
2022/06/21 00:06:06;;;;;;;;;;;;;;;;;;349977;28;927;-71
2022/06/21 00:06:21;;;;;;;;;;;;;;;;;;349978;28;845;-70
2022/06/21 00:06:31;;;;;;;;;;;;;;;;;;350000;28;955;-70
2022/06/21 00:06:42;;;;;;;;;;;;;;;;;;350038;28;979;-70
2022/06/21 00:06:52;;;;;;;;;;;;;;;;;;350029;28;916;-70
2022/06/21 00:07:04;;;;;;;;;;;;;;;;;;350009;28;919;-70
2022/06/21 00:07:18;;;;;;;;;;;;;;;;;;350067;28;936;-70
2022/06/21 00:07:29;;;;;;;;;;;;;;;;;;350706;28;1311;-70
2022/06/21 00:07:40;;;;;;;;;;;;;;;;;;351388;28;1487;-70
2022/06/21 00:07:50;;;;;;;;;;;;;;;;;;351180;28;1368;-70
2022/06/21 00:08:02;;;;;;;;;;;;;;;;;;351423;28;915;-70
2022/06/21 00:08:16;;;;;;;;;;;;;;;;;;351427;28;750;-70
2022/06/21 00:08:30;;;;;;;;;;;;;;;;;;351354;28;987;-70
2022/06/21 00:08:41;;;;;;;;;;;;;;;;;;351388;28;995;-70
2022/06/21 00:08:51;;;;;;;;;;;;;;;;;;351442;28;936;-70
2022/06/21 00:09:01;;;;;;;;;;;;;;;;;;351437;28;920;-70
2022/06/21 00:09:13;;;;;;;;;;;;;;;;;;351384;27;928;-70
2022/06/21 00:09:23;;;;;;;;;;;;;;;;;;351144;28;1348;-70
2022/06/21 00:09:34;;;;;;;;;;;;;;;;;;351409;28;944;-70
2022/06/21 00:09:44;;;;;;;;;;;;;;;;;;351401;28;1203;-70
2022/06/21 00:09:54;;;;;;;;;;;;;;;;;;351416;28;971;-70
2022/06/21 00:10:06;;;;;;;;;;;;;;;;;;351437;28;961;-70
2022/06/21 00:10:18;;;;;;;;;;;;;;;;;;351372;28;975;-70
2022/06/21 00:10:34;;;;;;;;;;;;;;;;;;351348;28;836;-70
2022/06/21 00:10:45;;;;;;;;;;;;;;;;;;351385;28;924;-70
2022/06/21 00:10:55;;;;;;;;;;;;;;;;;;351340;28;991;-70
2022/06/21 00:11:24;;;;;;;;;;;;;;;;;;351418;28;924;-70
2022/06/21 00:11:35;;;;;;;;;;;;;;;;;;351401;28;1000;-70
2022/06/21 00:11:45;;;;;;;;;;;;;;;;;;351313;28;900;-70
2022/06/21 00:11:55;;;;;;;;;;;;;;;;;;351364;28;864;-70
2022/06/21 00:12:05;;;;;;;;;;;;;;;;;;351210;28;931;-70
2022/06/21 00:12:16;;;;;;;;;;;;;;;;;;351221;28;971;-70
2022/06/21 00:12:26;;;;;;;;;;;;;;;;;;351201;28;860;-70
2022/06/21 00:12:36;;;;;;;;;;;;;;;;;;351173;28;995;-70
2022/06/21 00:12:46;;;;;;;;;;;;;;;;;;351334;28;916;-70
2022/06/21 00:12:57;;;;;;;;;;;;;;;;;;351357;28;994;-70
2022/06/21 00:13:10;;;;;;;;;;;;;;;;;;351321;28;924;-70
2022/06/21 00:13:28;;;;;;;;;;;;;;;;;;351364;28;987;-70
2022/06/21 00:13:38;;;;;;;;;;;;;;;;;;351356;28;2211;-70
2022/06/21 00:13:48;;;;;;;;;;;;;;;;;;351387;28;956;-70
2022/06/21 00:13:59;;;;;;;;;;;;;;;;;;351446;28;852;-70
2022/06/21 00:14:09;;;;;;;;;;;;;;;;;;351351;28;1351;-70
2022/06/21 00:14:19;;;;;;;;;;;;;;;;;;351429;28;904;-70
2022/06/21 00:14:29;;;;;;;;;;;;;;;;;;351376;28;953;-70
2022/06/21 00:14:40;;;;;;;;;;;;;;;;;;351376;28;951;-70
2022/06/21 00:14:50;;;;;;;;;;;;;;;;;;351378;28;1027;-70
2022/06/21 00:15:00;;;;;;;;;;;;;;;;;;351419;28;1007;-70
2022/06/21 00:15:11;;;;;;;;;;;;;;;;;;351337;28;963;-70
2022/06/21 00:15:21;;;;;;;;;;;;;;;;;;351370;28;1092;-71
2022/06/21 00:15:32;;;;;;;;;;;;;;;;;;351406;28;971;-70
2022/06/21 00:15:42;;;;;;;;;;;;;;;;;;351352;28;952;-70
2022/06/21 00:15:54;;;;;;;;;;;;;;;;;;351349;28;1022;-70
2022/06/21 00:16:06;;;;;;;;;;;;;;;;;;351434;28;964;-70
2022/06/21 00:16:17;;;;;;;;;;;;;;;;;;351366;28;1314;-70
2022/06/21 00:16:29;;;;;;;;;;;;;;;;;;351392;28;943;-70
2022/06/21 00:16:39;;;;;;;;;;;;;;;;;;351347;28;916;-70
2022/06/21 00:16:49;;;;;;;;;;;;;;;;;;351358;28;916;-70
2022/06/21 00:16:59;;;;;;;;;;;;;;;;;;351252;28;1772;-70
2022/06/21 00:17:14;;;;;;;;;;;;;;;;;;349813;28;1605;-70
2022/06/21 00:17:24;;;;;;;;;;;;;;;;;;349938;28;920;-70
2022/06/21 00:17:34;;;;;;;;;;;;;;;;;;350030;28;1082;-70
2022/06/21 00:17:49;;;;;;;;;;;;;;;;;;349954;28;1063;-70
2022/06/21 00:17:59;;;;;;;;;;;;;;;;;;349948;28;912;-70
2022/06/21 00:18:14;;;;;;;;;;;;;;;;;;349986;28;1002;-70
2022/06/21 00:18:25;;;;;;;;;;;;;;;;;;349947;28;1000;-70
2022/06/21 00:18:37;;;;;;;;;;;;;;;;;;349990;28;832;-70
2022/06/21 00:18:47;;;;;;;;;;;;;;;;;;349989;28;920;-70
2022/06/21 00:18:58;;;;;;;;;;;;;;;;;;349993;28;987;-70
2022/06/21 00:19:15;;;;;;;;;;;;;;;;;;350021;28;936;-70
2022/06/21 00:19:26;;;;;;;;;;;;;;;;;;349979;28;936;-70
2022/06/21 00:19:37;;;;;;;;;;;;;;;;;;350008;28;924;-70
2022/06/21 00:19:48;;;;;;;;;;;;;;;;;;349999;28;952;-70
2022/06/21 00:19:58;;;;;;;;;;;;;;;;;;349940;28;1082;-71
2022/06/21 00:20:13;;;;;;;;;;;;;;;;;;350014;28;980;-70
2022/06/21 00:20:25;;;;;;;;;;;;;;;;;;350028;28;927;-70
2022/06/21 00:20:35;;;;;;;;;;;;;;;;;;349995;28;917;-70
2022/06/21 00:20:46;;;;;;;;;;;;;;;;;;349972;28;1000;-70
2022/06/21 00:20:56;;;;;;;;;;;;;;;;;;349966;28;916;-70
2022/06/21 00:21:18;;;;;;;;;;;;;;;;;;350016;28;837;-70
2022/06/21 00:21:33;;;;;;;;;;;;;;;;;;349953;28;991;-70
2022/06/21 00:21:43;;;;;;;;;;;;;;;;;;349816;28;1819;-70
2022/06/21 00:21:53;;;;;;;;;;;;;;;;;;350026;28;936;-70
2022/06/21 00:22:05;;;;;;;;;;;;;;;;;;349956;28;979;-70
2022/06/21 00:22:18;;;;;;;;;;;;;;;;;;349961;28;928;-70
2022/06/21 00:22:28;;;;;;;;;;;;;;;;;;349998;28;849;-70
2022/06/21 00:22:39;;;;;;;;;;;;;;;;;;349938;28;793;-70
2022/06/21 00:22:49;;;;;;;;;;;;;;;;;;350064;28;1023;-70
2022/06/21 00:22:59;;;;;;;;;;;;;;;;;;349969;28;960;-70
2022/06/21 00:23:13;;;;;;;;;;;;;;;;;;349914;28;1073;-70
2022/06/21 00:23:25;;;;;;;;;;;;;;;;;;350022;28;924;-70
2022/06/21 00:23:35;;;;;;;;;;;;;;;;;;349920;28;1467;-70
2022/06/21 00:23:47;;;;;;;;;;;;;;;;;;349993;28;976;-70
2022/06/21 00:23:57;;;;;;;;;;;;;;;;;;349987;28;999;-70
2022/06/21 00:24:09;;;;;;;;;;;;;;;;;;350021;28;948;-70
2022/06/21 00:24:20;;;;;;;;;;;;;;;;;;349926;28;1066;-70
2022/06/21 00:24:30;;;;;;;;;;;;;;;;;;350001;28;960;-70
2022/06/21 00:24:41;;;;;;;;;;;;;;;;;;349975;28;983;-70
2022/06/21 00:24:51;;;;;;;;;;;;;;;;;;349986;28;971;-70
2022/06/21 00:25:04;;;;;;;;;;;;;;;;;;349983;28;987;-70
2022/06/21 00:25:16;;;;;;;;;;;;;;;;;;350027;28;809;-70
2022/06/21 00:25:27;;;;;;;;;;;;;;;;;;349967;28;932;-70
2022/06/21 00:25:37;;;;;;;;;;;;;;;;;;349975;28;924;-70
2022/06/21 00:25:47;;;;;;;;;;;;;;;;;;349991;28;948;-70
2022/06/21 00:25:58;;;;;;;;;;;;;;;;;;349990;28;927;-70
2022/06/21 00:26:10;;;;;;;;;;;;;;;;;;350041;28;797;-70
2022/06/21 00:26:21;;;;;;;;;;;;;;;;;;350013;28;983;-70
2022/06/21 00:26:32;;;;;;;;;;;;;;;;;;349981;28;938;-70
2022/06/21 00:26:43;;;;;;;;;;;;;;;;;;349965;28;988;-70
2022/06/21 00:26:53;;;;;;;;;;;;;;;;;;350012;28;833;-70
2022/06/21 00:27:04;;;;;;;;;;;;;;;;;;349965;28;988;-70
2022/06/21 00:27:17;;;;;;;;;;;;;;;;;;349865;28;1102;-70
2022/06/21 00:27:27;;;;;;;;;;;;;;;;;;350030;28;912;-70
2022/06/21 00:27:37;;;;;;;;;;;;;;;;;;349913;28;921;-70
2022/06/21 00:27:47;;;;;;;;;;;;;;;;;;349978;28;1205;-70
2022/06/21 00:27:58;;;;;;;;;;;;;;;;;;350025;28;1016;-70
2022/06/21 00:28:08;;;;;;;;;;;;;;;;;;350000;28;883;-70
2022/06/21 00:28:19;;;;;;;;;;;;;;;;;;349938;28;928;-70
2022/06/21 00:28:29;;;;;;;;;;;;;;;;;;350016;28;992;-70
2022/06/21 00:28:39;;;;;;;;;;;;;;;;;;349928;28;1046;-70
2022/06/21 00:28:50;;;;;;;;;;;;;;;;;;349674;28;1887;-70
2022/06/21 00:29:00;;;;;;;;;;;;;;;;;;349922;28;992;-70
2022/06/21 00:29:10;;;;;;;;;;;;;;;;;;350002;28;928;-70
2022/06/21 00:29:21;;;;;;;;;;;;;;;;;;349931;28;1049;-70
2022/06/21 00:29:31;;;;;;;;;;;;;;;;;;349981;28;928;-70
2022/06/21 00:29:41;;;;;;;;;;;;;;;;;;349953;28;904;-70
2022/06/21 00:29:52;;;;;;;;;;;;;;;;;;350019;28;836;-70
2022/06/21 00:30:03;;;;;;;;;;;;;;;;;;350014;28;952;-70
2022/06/21 00:30:14;;;;;;;;;;;;;;;;;;349975;28;847;-70
2022/06/21 00:30:24;;;;;;;;;;;;;;;;;;349944;28;982;-70
2022/06/21 00:30:34;;;;;;;;;;;;;;;;;;349990;28;924;-70
2022/06/21 00:30:46;;;;;;;;;;;;;;;;;;349971;28;881;-70
2022/06/21 00:30:56;;;;;;;;;;;;;;;;;;349993;28;1003;-70
2022/06/21 00:31:14;;;;;;;;;;;;;;;;;;350069;28;845;-70
2022/06/21 00:31:26;;;;;;;;;;;;;;;;;;349974;28;994;-70
2022/06/21 00:31:40;;;;;;;;;;;;;;;;;;349965;28;896;-70
2022/06/21 00:31:50;;;;;;;;;;;;;;;;;;350052;28;857;-70
2022/06/21 00:32:00;;;;;;;;;;;;;;;;;;350011;28;913;-70
2022/06/21 00:32:12;;;;;;;;;;;;;;;;;;350003;28;876;-70
2022/06/21 00:32:22;;;;;;;;;;;;;;;;;;349972;28;968;-70
2022/06/21 00:32:33;;;;;;;;;;;;;;;;;;349989;28;944;-70
2022/06/21 00:32:44;;;;;;;;;;;;;;;;;;349952;28;941;-70
2022/06/21 00:32:55;;;;;;;;;;;;;;;;;;349991;28;975;-70
2022/06/21 00:33:09;;;;;;;;;;;;;;;;;;349944;28;1029;-70
2022/06/21 00:33:22;;;;;;;;;;;;;;;;;;349993;28;996;-70
2022/06/21 00:33:32;;;;;;;;;;;;;;;;;;350043;28;828;-70
2022/06/21 00:33:43;;;;;;;;;;;;;;;;;;349965;28;987;-70
2022/06/21 00:33:53;;;;;;;;;;;;;;;;;;349972;28;910;-70
2022/06/21 00:34:12;;;;;;;;;;;;;;;;;;349969;28;1386;-70
2022/06/21 00:34:22;;;;;;;;;;;;;;;;;;350021;28;1019;-70
2022/06/21 00:34:32;;;;;;;;;;;;;;;;;;350004;28;955;-70
2022/06/21 00:34:43;;;;;;;;;;;;;;;;;;349907;28;956;-70
2022/06/21 00:34:53;;;;;;;;;;;;;;;;;;349990;28;991;-70
2022/06/21 00:35:05;;;;;;;;;;;;;;;;;;350028;28;836;-70
2022/06/21 00:35:16;;;;;;;;;;;;;;;;;;349961;28;996;-70
2022/06/21 00:35:27;;;;;;;;;;;;;;;;;;349921;28;837;-70
2022/06/21 00:35:39;;;;;;;;;;;;;;;;;;349977;28;990;-70
2022/06/21 00:35:52;;;;;;;;;;;;;;;;;;349958;28;1058;-70
2022/06/21 00:36:04;;;;;;;;;;;;;;;;;;349993;28;948;-70
2022/06/21 00:36:21;;;;;;;;;;;;;;;;;;349931;28;980;-70
2022/06/21 00:36:35;;;;;;;;;;;;;;;;;;349977;28;912;-70
2022/06/21 00:36:47;;;;;;;;;;;;;;;;;;350016;28;941;-70
2022/06/21 00:36:59;;;;;;;;;;;;;;;;;;349926;28;924;-70
2022/06/21 00:37:21;;;;;;;;;;;;;;;;;;350003;28;920;-70
2022/06/21 00:37:31;;;;;;;;;;;;;;;;;;351030;28;1260;-70
2022/06/21 00:37:42;;;;;;;;;;;;;;;;;;351356;28;987;-70
2022/06/21 00:37:52;;;;;;;;;;;;;;;;;;351361;28;955;-70
2022/06/21 00:38:02;;;;;;;;;;;;;;;;;;351352;28;924;-70
2022/06/21 00:38:13;;;;;;;;;;;;;;;;;;351387;28;837;-70
2022/06/21 00:38:30;;;;;;;;;;;;;;;;;;351365;28;1003;-70
2022/06/21 00:38:40;;;;;;;;;;;;;;;;;;351368;28;845;-70
2022/06/21 00:38:51;;;;;;;;;;;;;;;;;;351322;28;1089;-70
2022/06/21 00:39:02;;;;;;;;;;;;;;;;;;351390;28;916;-70
2022/06/21 00:39:14;;;;;;;;;;;;;;;;;;351351;28;903;-70
2022/06/21 00:39:24;;;;;;;;;;;;;;;;;;351413;28;770;-70
2022/06/21 00:39:34;;;;;;;;;;;;;;;;;;351391;28;951;-70
2022/06/21 00:39:45;;;;;;;;;;;;;;;;;;351298;28;777;-70
2022/06/21 00:39:55;;;;;;;;;;;;;;;;;;351370;28;1011;-70
2022/06/21 00:40:11;;;;;;;;;;;;;;;;;;351434;28;805;-70
2022/06/21 00:40:27;;;;;;;;;;;;;;;;;;351376;28;1079;-70
2022/06/21 00:40:37;;;;;;;;;;;;;;;;;;351423;28;840;-70
2022/06/21 00:40:47;;;;;;;;;;;;;;;;;;351393;28;904;-70
2022/06/21 00:40:59;;;;;;;;;;;;;;;;;;351287;28;1014;-71
2022/06/21 00:41:10;;;;;;;;;;;;;;;;;;351382;28;938;-70
2022/06/21 00:41:37;;;;;;;;;;;;;;;;;;351329;28;1967;-70
2022/06/21 00:41:50;;;;;;;;;;;;;;;;;;351226;28;975;-70
2022/06/21 00:42:01;;;;;;;;;;;;;;;;;;351217;28;1019;-70
2022/06/21 00:42:18;;;;;;;;;;;;;;;;;;351277;28;912;-70
2022/06/21 00:42:29;;;;;;;;;;;;;;;;;;351209;28;904;-70
2022/06/21 00:42:40;;;;;;;;;;;;;;;;;;351221;28;1106;-70
2022/06/21 00:42:55;;;;;;;;;;;;;;;;;;351268;28;926;-70
2022/06/21 00:43:05;;;;;;;;;;;;;;;;;;351301;28;809;-70
2022/06/21 00:43:21;;;;;;;;;;;;;;;;;;351230;28;895;-70
2022/06/21 00:43:37;;;;;;;;;;;;;;;;;;350540;28;1867;-70
2022/06/21 00:43:50;;;;;;;;;;;;;;;;;;349907;28;947;-70
2022/06/21 00:44:02;;;;;;;;;;;;;;;;;;349938;28;865;-70
2022/06/21 00:44:25;;;;;;;;;;;;;;;;;;349954;28;865;-70
2022/06/21 00:44:39;;;;;;;;;;;;;;;;;;349949;28;975;-70
2022/06/21 00:45:15;;;;;;;;;;;;;;;;;;349984;28;869;-70
2022/06/21 00:45:29;;;;;;;;;;;;;;;;;;348799;28;1310;-72
2022/06/21 00:45:40;;;;;;;;;;;;;;;;;;349991;28;766;-70
2022/06/21 00:45:51;;;;;;;;;;;;;;;;;;349973;28;900;-70
2022/06/21 00:46:01;;;;;;;;;;;;;;;;;;349927;28;967;-70
2022/06/21 00:46:22;;;;;;;;;;;;;;;;;;349954;28;940;-70
2022/06/21 00:46:37;;;;;;;;;;;;;;;;;;349961;28;892;-70
2022/06/21 00:46:51;;;;;;;;;;;;;;;;;;349998;28;920;-70
2022/06/21 00:47:03;;;;;;;;;;;;;;;;;;349978;28;968;-70
2022/06/21 00:47:13;;;;;;;;;;;;;;;;;;349916;28;932;-70
2022/06/21 00:47:27;;;;;;;;;;;;;;;;;;349969;28;901;-70
2022/06/21 00:47:47;;;;;;;;;;;;;;;;;;350026;28;790;-70
2022/06/21 00:48:00;;;;;;;;;;;;;;;;;;349939;28;980;-70
2022/06/21 00:48:29;;;;;;;;;;;;;;;;;;349919;28;1344;-70
2022/06/21 00:48:41;;;;;;;;;;;;;;;;;;349958;28;937;-71
2022/06/21 00:48:52;;;;;;;;;;;;;;;;;;351026;28;1312;-70
2022/06/21 00:49:05;;;;;;;;;;;;;;;;;;351483;28;1533;-70
2022/06/21 00:49:23;;;;;;;;;;;;;;;;;;351258;28;1797;-70
2022/06/21 00:49:39;;;;;;;;;;;;;;;;;;349930;28;928;-70
2022/06/21 00:49:52;;;;;;;;;;;;;;;;;;349999;28;932;-70
2022/06/21 00:50:16;;;;;;;;;;;;;;;;;;349938;28;845;-70
2022/06/21 00:50:27;;;;;;;;;;;;;;;;;;349988;28;912;-70
2022/06/21 00:50:40;;;;;;;;;;;;;;;;;;349921;28;1039;-70
2022/06/21 00:50:56;;;;;;;;;;;;;;;;;;349993;28;975;-70
2022/06/21 00:51:15;;;;;;;;;;;;;;;;;;349811;28;1237;-70
2022/06/21 00:51:31;;;;;;;;;;;;;;;;;;350038;28;817;-70
2022/06/21 00:51:42;;;;;;;;;;;;;;;;;;349981;28;766;-70
2022/06/21 00:51:57;;;;;;;;;;;;;;;;;;349974;28;940;-70
2022/06/21 00:52:13;;;;;;;;;;;;;;;;;;349881;28;971;-70
2022/06/21 00:52:40;;;;;;;;;;;;;;;;;;349968;28;952;-70
2022/06/21 00:52:53;;;;;;;;;;;;;;;;;;349911;28;904;-70
2022/06/21 00:53:22;;;;;;;;;;;;;;;;;;349987;28;806;-69
2022/06/21 00:53:37;;;;;;;;;;;;;;;;;;349933;28;964;-70
2022/06/21 00:53:55;;;;;;;;;;;;;;;;;;350004;28;952;-70
2022/06/21 00:54:17;;;;;;;;;;;;;;;;;;349938;28;971;-70
2022/06/21 00:54:38;;;;;;;;;;;;;;;;;;349919;28;912;-70
2022/06/21 00:54:48;;;;;;;;;;;;;;;;;;349953;28;975;-70
2022/06/21 00:55:02;;;;;;;;;;;;;;;;;;350019;28;1610;-70
2022/06/21 00:55:18;;;;;;;;;;;;;;;;;;349912;28;802;-70
2022/06/21 00:55:46;;;;;;;;;;;;;;;;;;349999;28;841;-70
2022/06/21 00:56:02;;;;;;;;;;;;;;;;;;349950;28;829;-70
2022/06/21 00:56:14;;;;;;;;;;;;;;;;;;349981;28;931;-70
2022/06/21 00:56:28;;;;;;;;;;;;;;;;;;349602;28;1745;-70
2022/06/21 00:56:44;;;;;;;;;;;;;;;;;;349964;28;991;-70
2022/06/21 00:56:59;;;;;;;;;;;;;;;;;;349969;28;1015;-70
2022/06/21 00:57:13;;;;;;;;;;;;;;;;;;349968;28;912;-70
2022/06/21 00:57:28;;;;;;;;;;;;;;;;;;349957;28;1008;-70
2022/06/21 00:57:42;;;;;;;;;;;;;;;;;;349964;28;920;-70
2022/06/21 00:57:54;;;;;;;;;;;;;;;;;;349981;28;975;-70
2022/06/21 00:58:05;;;;;;;;;;;;;;;;;;350025;28;809;-70
2022/06/21 00:58:17;;;;;;;;;;;;;;;;;;349999;28;978;-70
2022/06/21 00:58:30;;;;;;;;;;;;;;;;;;349855;28;987;-70
2022/06/21 00:58:41;;;;;;;;;;;;;;;;;;349926;28;995;-70
2022/06/21 00:58:51;;;;;;;;;;;;;;;;;;349978;28;798;-70
2022/06/21 00:59:33;;;;;;;;;;;;;;;;;;349924;28;960;-70
2022/06/21 00:59:44;;;;;;;;;;;;;;;;;;348382;28;937;-70
2022/06/21 00:59:58;;;;;;;;;;;;;;;;;;348363;28;1413;-71
2022/06/21 01:00:44;;;;;;;;;;;;;;;;;;348400;28;928;-70
2022/06/21 01:01:05;;;;;;;;;;;;;;;;;;346969;28;1000;-71
2022/06/21 01:01:18;;;;;;;;;;;;;;;;;;346946;28;930;-70
2022/06/21 01:01:32;;;;;;;;;;;;;;;;;;347082;28;877;-70
2022/06/21 01:01:42;;;;;;;;;;;;;;;;;;347029;28;1087;-70
2022/06/21 01:01:55;;;;;;;;;;;;;;;;;;347006;28;1012;-71
2022/06/21 01:02:06;;;;;;;;;;;;;;;;;;347070;28;1016;-70
2022/06/21 01:02:31;;;;;;;;;;;;;;;;;;346977;28;976;-70
2022/06/21 01:02:41;;;;;;;;;;;;;;;;;;346965;28;807;-70
2022/06/21 01:02:52;;;;;;;;;;;;;;;;;;347051;28;984;-70
2022/06/21 01:03:06;;;;;;;;;;;;;;;;;;346998;28;929;-70
2022/06/21 01:03:18;;;;;;;;;;;;;;;;;;347040;28;957;-70
2022/06/21 01:03:31;;;;;;;;;;;;;;;;;;346986;28;961;-70
2022/06/21 01:03:46;;;;;;;;;;;;;;;;;;347316;28;977;-70
2022/06/21 01:03:58;;;;;;;;;;;;;;;;;;349917;28;1058;-70
2022/06/21 01:04:15;;;;;;;;;;;;;;;;;;349946;28;975;-70
2022/06/21 01:04:40;;;;;;;;;;;;;;;;;;349877;28;913;-70
2022/06/21 01:04:52;;;;;;;;;;;;;;;;;;349915;28;867;-70
2022/06/21 01:05:03;;;;;;;;;;;;;;;;;;349964;28;1003;-70
2022/06/21 01:05:13;;;;;;;;;;;;;;;;;;349956;28;979;-70
2022/06/21 01:05:25;;;;;;;;;;;;;;;;;;349947;28;944;-70
2022/06/21 01:05:38;;;;;;;;;;;;;;;;;;349953;28;908;-69
2022/06/21 01:05:49;;;;;;;;;;;;;;;;;;349953;28;884;-69
2022/06/21 01:06:01;;;;;;;;;;;;;;;;;;349984;28;1056;-70
2022/06/21 01:06:14;;;;;;;;;;;;;;;;;;350003;28;775;-69
2022/06/21 01:06:33;;;;;;;;;;;;;;;;;;349890;28;916;-69
2022/06/21 01:06:45;;;;;;;;;;;;;;;;;;349824;28;963;-70
2022/06/21 01:06:59;;;;;;;;;;;;;;;;;;349994;28;821;-70
2022/06/21 01:07:10;;;;;;;;;;;;;;;;;;349986;28;951;-69
2022/06/21 01:07:21;;;;;;;;;;;;;;;;;;349919;28;865;-70
2022/06/21 01:07:32;;;;;;;;;;;;;;;;;;350263;28;1353;-70
2022/06/21 01:07:42;;;;;;;;;;;;;;;;;;349990;28;900;-70
2022/06/21 01:07:54;;;;;;;;;;;;;;;;;;349966;28;912;-70
2022/06/21 01:08:04;;;;;;;;;;;;;;;;;;350018;28;796;-69
2022/06/21 01:08:20;;;;;;;;;;;;;;;;;;349971;28;1027;-70
2022/06/21 01:08:33;;;;;;;;;;;;;;;;;;349957;28;1008;-70
2022/06/21 01:08:46;;;;;;;;;;;;;;;;;;349919;28;995;-69
2022/06/21 01:09:01;;;;;;;;;;;;;;;;;;349974;28;829;-70
2022/06/21 01:09:14;;;;;;;;;;;;;;;;;;349958;28;952;-70
2022/06/21 01:09:27;;;;;;;;;;;;;;;;;;349911;28;920;-70
2022/06/21 01:09:52;;;;;;;;;;;;;;;;;;349981;28;892;-70
2022/06/21 01:10:07;;;;;;;;;;;;;;;;;;349971;28;968;-69
2022/06/21 01:10:18;;;;;;;;;;;;;;;;;;349965;28;853;-69
2022/06/21 01:10:29;;;;;;;;;;;;;;;;;;349945;28;936;-69
2022/06/21 01:10:40;;;;;;;;;;;;;;;;;;349883;28;1202;-70
2022/06/21 01:10:53;;;;;;;;;;;;;;;;;;349977;28;944;-70
2022/06/21 01:11:05;;;;;;;;;;;;;;;;;;349611;28;1820;-70
2022/06/21 01:11:22;;;;;;;;;;;;;;;;;;351278;28;931;-70
2022/06/21 01:11:36;;;;;;;;;;;;;;;;;;351330;28;916;-70
2022/06/21 01:11:49;;;;;;;;;;;;;;;;;;351371;28;928;-69
2022/06/21 01:11:59;;;;;;;;;;;;;;;;;;351299;28;1115;-70
2022/06/21 01:12:12;;;;;;;;;;;;;;;;;;351385;28;845;-70
2022/06/21 01:12:27;;;;;;;;;;;;;;;;;;351394;28;773;-70
2022/06/21 01:12:47;;;;;;;;;;;;;;;;;;351304;28;924;-70
2022/06/21 01:12:59;;;;;;;;;;;;;;;;;;351356;28;1026;-70
2022/06/21 01:13:13;;;;;;;;;;;;;;;;;;351372;28;865;-70
2022/06/21 01:13:26;;;;;;;;;;;;;;;;;;351290;28;988;-70
2022/06/21 01:13:38;;;;;;;;;;;;;;;;;;351317;28;991;-69
2022/06/21 01:13:50;;;;;;;;;;;;;;;;;;351359;28;853;-70
2022/06/21 01:14:01;;;;;;;;;;;;;;;;;;351345;28;967;-70
2022/06/21 01:14:12;;;;;;;;;;;;;;;;;;351367;28;920;-69
2022/06/21 01:14:23;;;;;;;;;;;;;;;;;;351365;28;1006;-69
2022/06/21 01:14:35;;;;;;;;;;;;;;;;;;351361;28;793;-70
2022/06/21 01:14:48;;;;;;;;;;;;;;;;;;351297;28;948;-70
2022/06/21 01:15:27;;;;;;;;;;;;;;;;;;351344;28;943;-70
2022/06/21 01:15:40;;;;;;;;;;;;;;;;;;348290;28;1199;-69
2022/06/21 01:15:50;;;;;;;;;;;;;;;;;;348389;28;1092;-69
2022/06/21 01:16:01;;;;;;;;;;;;;;;;;;348752;28;1102;-70
2022/06/21 01:16:12;;;;;;;;;;;;;;;;;;351398;28;904;-69
2022/06/21 01:16:23;;;;;;;;;;;;;;;;;;351290;28;941;-70
2022/06/21 01:16:35;;;;;;;;;;;;;;;;;;351301;28;1002;-70
2022/06/21 01:16:45;;;;;;;;;;;;;;;;;;351350;28;971;-69
2022/06/21 01:16:56;;;;;;;;;;;;;;;;;;351361;28;984;-70
2022/06/21 01:17:08;;;;;;;;;;;;;;;;;;351365;28;987;-70
2022/06/21 01:17:19;;;;;;;;;;;;;;;;;;351263;28;990;-70
2022/06/21 01:17:30;;;;;;;;;;;;;;;;;;351338;28;929;-70
2022/06/21 01:17:40;;;;;;;;;;;;;;;;;;351349;28;916;-69
2022/06/21 01:17:52;;;;;;;;;;;;;;;;;;351377;28;833;-70
2022/06/21 01:18:04;;;;;;;;;;;;;;;;;;351362;28;1018;-70
2022/06/21 01:18:18;;;;;;;;;;;;;;;;;;351326;28;897;-69
2022/06/21 01:18:29;;;;;;;;;;;;;;;;;;351354;28;769;-70
2022/06/21 01:18:40;;;;;;;;;;;;;;;;;;351347;28;844;-69
2022/06/21 01:18:50;;;;;;;;;;;;;;;;;;351363;28;920;-70
2022/06/21 01:19:01;;;;;;;;;;;;;;;;;;351332;28;912;-70
2022/06/21 01:19:22;;;;;;;;;;;;;;;;;;350615;28;1867;-69
2022/06/21 01:19:41;;;;;;;;;;;;;;;;;;351358;28;920;-70
2022/06/21 01:19:55;;;;;;;;;;;;;;;;;;351314;28;995;-70
2022/06/21 01:20:10;;;;;;;;;;;;;;;;;;351333;28;912;-70
2022/06/21 01:20:22;;;;;;;;;;;;;;;;;;351356;28;955;-70
2022/06/21 01:20:33;;;;;;;;;;;;;;;;;;351394;28;849;-70
2022/06/21 01:20:46;;;;;;;;;;;;;;;;;;351363;28;912;-70
2022/06/21 01:20:58;;;;;;;;;;;;;;;;;;351314;28;975;-70
2022/06/21 01:21:09;;;;;;;;;;;;;;;;;;351351;28;1015;-70
2022/06/21 01:21:20;;;;;;;;;;;;;;;;;;351226;28;1906;-70
2022/06/21 01:21:30;;;;;;;;;;;;;;;;;;351293;28;1015;-69
2022/06/21 01:21:44;;;;;;;;;;;;;;;;;;351355;28;869;-70
2022/06/21 01:21:57;;;;;;;;;;;;;;;;;;351293;28;952;-69
2022/06/21 01:22:16;;;;;;;;;;;;;;;;;;351353;28;924;-70
2022/06/21 01:22:45;;;;;;;;;;;;;;;;;;351279;28;943;-69
2022/06/21 01:23:13;;;;;;;;;;;;;;;;;;351344;28;987;-70
2022/06/21 01:23:29;;;;;;;;;;;;;;;;;;351229;28;936;-69
2022/06/21 01:23:58;;;;;;;;;;;;;;;;;;351390;28;919;-69
2022/06/21 01:24:13;;;;;;;;;;;;;;;;;;351563;28;1109;-69
2022/06/21 01:24:30;;;;;;;;;;;;;;;;;;351664;28;994;-69
2022/06/21 01:24:47;;;;;;;;;;;;;;;;;;351601;28;999;-70
2022/06/21 01:25:04;;;;;;;;;;;;;;;;;;351021;28;1609;-70
2022/06/21 01:25:14;;;;;;;;;;;;;;;;;;351496;28;991;-70
2022/06/21 01:25:43;;;;;;;;;;;;;;;;;;351647;28;908;-69
2022/06/21 01:25:59;;;;;;;;;;;;;;;;;;351554;28;920;-69
2022/06/21 01:26:28;;;;;;;;;;;;;;;;;;351671;28;861;-69
2022/06/21 01:26:41;;;;;;;;;;;;;;;;;;351632;28;885;-69
2022/06/21 01:27:02;;;;;;;;;;;;;;;;;;351572;28;1141;-70
2022/06/21 01:27:12;;;;;;;;;;;;;;;;;;351621;28;932;-70
2022/06/21 01:27:22;;;;;;;;;;;;;;;;;;351606;28;960;-70
2022/06/21 01:27:32;;;;;;;;;;;;;;;;;;351535;28;923;-70
2022/06/21 01:27:43;;;;;;;;;;;;;;;;;;351633;28;916;-70
2022/06/21 01:27:55;;;;;;;;;;;;;;;;;;351606;28;952;-69
2022/06/21 01:28:08;;;;;;;;;;;;;;;;;;351611;28;1018;-70
2022/06/21 01:28:19;;;;;;;;;;;;;;;;;;351640;28;943;-69
2022/06/21 01:28:30;;;;;;;;;;;;;;;;;;351599;28;983;-70
2022/06/21 01:28:40;;;;;;;;;;;;;;;;;;351619;28;932;-69
2022/06/21 01:28:51;;;;;;;;;;;;;;;;;;351593;28;979;-70
2022/06/21 01:29:02;;;;;;;;;;;;;;;;;;351560;28;951;-70
2022/06/21 01:29:14;;;;;;;;;;;;;;;;;;351591;28;963;-70
2022/06/21 01:29:26;;;;;;;;;;;;;;;;;;351605;28;964;-69
2022/06/21 01:29:38;;;;;;;;;;;;;;;;;;351535;28;1820;-70
2022/06/21 01:29:50;;;;;;;;;;;;;;;;;;351603;28;852;-69
2022/06/21 01:30:01;;;;;;;;;;;;;;;;;;351661;28;924;-69
2022/06/21 01:30:11;;;;;;;;;;;;;;;;;;351592;28;864;-70
2022/06/21 01:30:26;;;;;;;;;;;;;;;;;;351641;28;857;-69
2022/06/21 01:30:37;;;;;;;;;;;;;;;;;;351570;28;923;-70
2022/06/21 01:30:51;;;;;;;;;;;;;;;;;;351581;28;1385;-69
2022/06/21 01:31:01;;;;;;;;;;;;;;;;;;351648;28;793;-70
2022/06/21 01:31:12;;;;;;;;;;;;;;;;;;351573;28;901;-70
2022/06/21 01:31:22;;;;;;;;;;;;;;;;;;351624;28;920;-70
2022/06/21 01:31:33;;;;;;;;;;;;;;;;;;351657;28;778;-69
2022/06/21 01:31:43;;;;;;;;;;;;;;;;;;351545;28;995;-70
2022/06/21 01:31:55;;;;;;;;;;;;;;;;;;351605;28;964;-69
2022/06/21 01:32:05;;;;;;;;;;;;;;;;;;351666;28;995;-70
2022/06/21 01:32:16;;;;;;;;;;;;;;;;;;351648;28;987;-70
2022/06/21 01:32:27;;;;;;;;;;;;;;;;;;351629;28;916;-70
2022/06/21 01:32:37;;;;;;;;;;;;;;;;;;351578;28;796;-70
2022/06/21 01:32:48;;;;;;;;;;;;;;;;;;351600;28;1079;-69
2022/06/21 01:32:59;;;;;;;;;;;;;;;;;;351574;28;976;-70